French Creek

NWS Weather station page.

Elevation
7422ft
Aggregated by Synoptic Data
Date/Time Wind Direction Wind Speed knots Wind Gust knots RH % Accumulated Precip Inches Air Temp Fahrenheit
2024-07-13 04:16 N 3 5 48 5.32 56
2024-07-13 03:16 N 3 5 45 5.32 57
2024-07-13 02:16 N 3 5 44 5.32 58
2024-07-13 01:16 E 2 9 38 5.32 61
2024-07-13 00:16 N 8 13 32 5.32 67
2024-07-12 23:16 N 6 14 28 5.32 69
2024-07-12 22:16 N 9 15 27 5.32 71
2024-07-12 21:16 N 5 14 26 5.32 72
2024-07-12 20:16 N 4 11 21 5.32 76
2024-07-12 19:16 NW 4 14 17 5.32 81
2024-07-12 18:16 WNW 4 13 16 5.32 84
2024-07-12 17:16 NW 6 17 16 5.32 84
2024-07-12 16:16 WSW 6 17 17 5.32 85
2024-07-12 15:16 SSW 6 19 16 5.32 83
2024-07-12 14:16 SSW 6 18 17 5.32 83
2024-07-12 13:16 SSW 7 24 19 5.32 80
2024-07-12 12:16 S 7 18 18 5.32 81
2024-07-12 11:16 S 7 14 17 5.32 79
2024-07-12 10:16 S 7 10 18 5.32 77
2024-07-12 09:16 SE 3 6 17 5.32 76
2024-07-12 08:16 NE 2 4 28 5.32 70
2024-07-12 07:16 NNE 3 5 32 5.32 60
2024-07-12 06:16 NNE 3 6 35 5.32 55
2024-07-12 05:16 NNW 3 5 34 5.32 56
2024-07-12 04:16 N 3 5 34 5.32 57
2024-07-12 03:16 N 3 5 36 5.32 58
2024-07-12 02:16 NNW 3 5 35 5.32 59
2024-07-12 01:16 N 3 5 33 5.32 60
2024-07-12 00:16 NNE 3 7 29 5.32 64
2024-07-11 23:16 N 3 10 24 5.32 67
2024-07-11 22:16 NNW 5 10 23 5.32 69
2024-07-11 21:16 NNW 4 8 25 5.32 71
2024-07-11 20:16 NNW 4 11 20 5.32 76
2024-07-11 19:16 NNW 4 11 17 5.32 81
2024-07-11 18:16 WNW 5 15 15 5.32 84
2024-07-11 17:16 WNW 5 17 14 5.32 85
2024-07-11 16:16 W 6 16 13 5.32 84
2024-07-11 15:16 WSW 7 18 14 5.32 85
2024-07-11 14:16 SSW 9 21 14 5.32 84
2024-07-11 13:16 WNW 4 17 19 5.32 81
2024-07-11 12:16 S 9 16 18 5.32 82
2024-07-11 11:16 SW 5 11 18 5.32 81
2024-07-11 10:16 S 6 11 20 5.32 79
2024-07-11 09:16 SE 3 6 22 5.32 77
2024-07-11 08:16 NNE 2 3 32 5.32 71
2024-07-11 07:16 NNW 3 5 38 5.32 63
2024-07-11 06:16 N 3 5 36 5.32 60
2024-07-11 05:16 NNE 3 7 35 5.32 60
2024-07-11 04:16 N 4 7 29 5.32 64